Time;durP1;ratioP1;P1;durP2;ratioP2;P2;SDS_P1;SDS_P2;PMS_P1;PMS_P2;Temp;Humidity;BMP_temperature;BMP_pressure;BME280_temperature;BME280_humidity;BME280_pressure;Samples;Min_cycle;Max_cycle;Signal;HPM_P1;HPM_P2
2023/10/29 00:01:34;;;;;;;4.78;3.35;;;12.00;99.90;;;;;;5075611;28;20024;-72
2023/10/29 00:04:00;;;;;;;8.70;2.90;;;12.00;99.90;;;;;;5076856;28;20024;-72
2023/10/29 00:06:25;;;;;;;5.32;2.92;;;12.00;99.90;;;;;;5076440;28;20386;-72
2023/10/29 00:08:51;;;;;;;5.00;2.78;;;12.10;99.90;;;;;;5076246;28;20067;-73
2023/10/29 00:11:16;;;;;;;4.45;3.10;;;12.10;99.90;;;;;;5076127;28;20024;-73
2023/10/29 00:13:43;;;;;;;6.25;2.78;;;12.10;99.90;;;;;;5076307;28;20025;-73
2023/10/29 00:16:08;;;;;;;5.68;2.65;;;12.20;99.90;;;;;;5076392;28;20537;-73
2023/10/29 00:18:34;;;;;;;6.90;2.58;;;12.20;99.90;;;;;;5076458;28;20052;-73
2023/10/29 00:20:59;;;;;;;4.30;2.40;;;12.30;99.90;;;;;;5077081;28;20037;-74
2023/10/29 00:23:25;;;;;;;5.88;2.30;;;12.40;99.90;;;;;;5077074;28;20487;-74
2023/10/29 00:25:50;;;;;;;3.88;2.25;;;12.50;99.90;;;;;;5077429;28;20054;-74
2023/10/29 00:28:16;;;;;;;5.28;2.17;;;12.50;99.90;;;;;;5077846;28;20032;-78
2023/10/29 00:30:41;;;;;;;3.58;1.85;;;12.60;99.90;;;;;;5078346;28;20032;-74
2023/10/29 00:33:07;;;;;;;4.15;1.52;;;12.60;99.90;;;;;;5079305;28;20493;-74
2023/10/29 00:35:33;;;;;;;4.40;2.00;;;12.70;99.90;;;;;;5078568;28;20378;-75
2023/10/29 00:37:58;;;;;;;3.72;1.90;;;12.70;99.90;;;;;;5078426;28;20024;-75
2023/10/29 00:40:25;;;;;;;2.65;1.70;;;12.70;99.90;;;;;;5080648;28;20033;-74
2023/10/29 00:42:50;;;;;;;4.72;1.50;;;12.70;99.90;;;;;;5079589;28;20489;-74
2023/10/29 00:45:16;;;;;;;4.25;1.85;;;12.70;99.90;;;;;;5076451;28;20029;-73
2023/10/29 00:47:42;;;;;;;5.82;1.80;;;12.70;99.90;;;;;;5075272;28;20033;-72
2023/10/29 00:50:08;;;;;;;3.88;1.70;;;12.70;99.90;;;;;;5075329;28;20023;-73
2023/10/29 00:52:34;;;;;;;2.33;1.58;;;12.90;99.90;;;;;;5075010;28;20017;-73
2023/10/29 00:55:01;;;;;;;3.85;1.80;;;13.00;99.90;;;;;;5075323;28;20035;-73
2023/10/29 00:57:26;;;;;;;2.20;1.63;;;13.00;99.90;;;;;;5075967;28;20409;-73
2023/10/29 00:59:53;;;;;;;3.00;1.60;;;13.10;99.90;;;;;;5075854;28;20033;-73
2023/10/29 01:02:20;;;;;;;5.55;1.63;;;13.20;99.90;;;;;;5075477;28;20033;-74
2023/10/29 01:04:45;;;;;;;4.05;1.60;;;13.10;99.90;;;;;;5075295;28;20046;-73
2023/10/29 01:07:11;;;;;;;2.45;1.73;;;13.30;99.90;;;;;;5077091;28;20048;-74
2023/10/29 01:09:40;;;;;;;2.30;1.42;;;;;;;;;;5075983;28;20036;-75
2023/10/29 01:12:14;;;;;;;3.05;1.33;;;13.20;99.90;;;;;;5076130;28;20074;-76
2023/10/29 01:14:41;;;;;;;4.72;1.52;;;13.30;99.90;;;;;;5076103;28;20441;-77
2023/10/29 01:17:06;;;;;;;1.42;1.33;;;13.40;99.90;;;;;;5076845;28;20056;-75
2023/10/29 01:19:32;;;;;;;2.92;1.33;;;13.40;99.90;;;;;;5076063;28;20020;-73
2023/10/29 01:21:58;;;;;;;3.88;1.50;;;13.30;99.90;;;;;;5076293;28;20489;-75
2023/10/29 01:24:24;;;;;;;4.10;1.40;;;13.40;99.90;;;;;;5075901;28;20035;-75
2023/10/29 01:26:49;;;;;;;2.70;1.40;;;13.60;99.90;;;;;;5074702;28;20036;-74
2023/10/29 01:29:16;;;;;;;2.00;1.23;;;;;;;;;;5074039;28;20123;-75
2023/10/29 01:31:41;;;;;;;4.10;1.60;;;13.40;99.90;;;;;;5075213;28;20037;-74
2023/10/29 01:34:07;;;;;;;1.88;1.70;;;13.60;99.90;;;;;;5074875;28;20466;-75
2023/10/29 01:36:32;;;;;;;3.20;1.33;;;13.70;99.90;;;;;;5074757;28;20024;-74
2023/10/29 01:38:58;;;;;;;7.85;1.50;;;13.70;99.90;;;;;;5075095;28;20078;-74
2023/10/29 01:41:24;;;;;;;4.38;1.50;;;13.50;99.90;;;;;;5074211;28;20036;-74
2023/10/29 01:43:50;;;;;;;4.22;1.60;;;13.70;99.90;;;;;;5075087;28;20043;-74
2023/10/29 01:46:15;;;;;;;1.98;1.30;;;13.70;99.90;;;;;;5074834;28;20040;-74
2023/10/29 01:48:41;;;;;;;3.63;1.70;;;13.50;99.90;;;;;;5073470;28;20037;-73
2023/10/29 01:51:06;;;;;;;2.65;1.45;;;13.80;99.90;;;;;;5074842;28;20029;-73
2023/10/29 01:53:32;;;;;;;2.28;1.58;;;13.50;99.90;;;;;;5074887;28;20021;-73
2023/10/29 01:55:57;;;;;;;2.60;1.50;;;13.60;99.90;;;;;;5074416;28;20086;-73
2023/10/29 01:58:23;;;;;;;4.30;1.35;;;13.70;99.90;;;;;;5074652;28;20120;-73
2023/10/29 02:00:50;;;;;;;3.20;1.40;;;13.80;99.90;;;;;;5074364;28;20040;-73
2023/10/29 02:03:16;;;;;;;3.05;1.25;;;13.90;99.90;;;;;;5074364;28;20032;-73
2023/10/29 02:05:42;;;;;;;3.10;1.13;;;13.90;99.90;;;;;;5074058;28;20089;-73
2023/10/29 02:08:08;;;;;;;6.25;1.60;;;14.10;99.90;;;;;;5074489;28;20017;-73
2023/10/29 02:10:33;;;;;;;3.75;1.27;;;14.10;99.90;;;;;;5074196;28;20039;-73
2023/10/29 02:12:59;;;;;;;3.80;1.50;;;14.10;99.90;;;;;;5073848;28;20024;-73
2023/10/29 02:15:24;;;;;;;3.95;1.50;;;14.10;99.90;;;;;;5074408;28;20027;-73
2023/10/29 02:17:50;;;;;;;7.38;1.67;;;14.10;99.90;;;;;;5074168;28;20028;-73
2023/10/29 02:20:16;;;;;;;3.17;1.35;;;14.10;99.90;;;;;;5073958;28;20028;-74
2023/10/29 02:22:41;;;;;;;4.20;1.80;;;14.10;99.90;;;;;;5073070;28;20028;-73
2023/10/29 02:25:07;;;;;;;4.47;1.20;;;14.10;99.90;;;;;;5073754;28;20047;-73
2023/10/29 02:27:33;;;;;;;5.68;1.63;;;14.10;99.90;;;;;;5073106;28;20075;-73
2023/10/29 02:29:58;;;;;;;5.35;1.38;;;14.60;99.90;;;;;;5074316;28;20035;-73
2023/10/29 02:32:24;;;;;;;5.25;1.58;;;14.90;99.90;;;;;;5073852;28;20016;-73
2023/10/29 02:34:49;;;;;;;2.92;1.48;;;14.20;99.90;;;;;;5073340;28;20032;-73
2023/10/29 02:37:15;;;;;;;4.50;1.50;;;14.20;99.90;;;;;;5073641;28;20060;-73
2023/10/29 02:39:40;;;;;;;4.93;1.40;;;14.30;99.90;;;;;;5073771;28;20056;-73
2023/10/29 02:42:06;;;;;;;4.53;1.40;;;14.30;99.90;;;;;;5073909;28;20565;-72
2023/10/29 02:44:31;;;;;;;4.15;1.58;;;14.50;99.90;;;;;;5074164;28;20029;-73
2023/10/29 02:46:57;;;;;;;9.38;1.70;;;14.20;99.90;;;;;;5073775;28;20028;-73
2023/10/29 02:49:22;;;;;;;4.90;1.50;;;14.20;99.90;;;;;;5073685;28;20035;-74
2023/10/29 02:51:48;;;;;;;2.10;1.20;;;14.30;99.90;;;;;;5073582;28;20034;-73
2023/10/29 02:54:13;;;;;;;4.18;1.40;;;14.10;99.90;;;;;;5073512;28;20020;-72
2023/10/29 02:56:39;;;;;;;4.38;1.58;;;14.10;99.90;;;;;;5074110;28;20504;-74
2023/10/29 02:59:05;;;;;;;2.38;1.20;;;14.40;99.90;;;;;;5073944;28;20035;-73
2023/10/29 03:01:30;;;;;;;2.53;1.13;;;14.40;99.90;;;;;;5077114;28;20039;-75
2023/10/29 03:03:56;;;;;;;3.25;1.40;;;14.60;99.90;;;;;;5078366;28;20042;-73
2023/10/29 03:06:21;;;;;;;3.88;1.20;;;14.90;99.90;;;;;;5077533;28;20036;-73
2023/10/29 03:08:47;;;;;;;4.57;1.27;;;14.40;99.90;;;;;;5077676;28;20068;-75
2023/10/29 03:11:13;;;;;;;4.82;1.65;;;;;;;;;;5077831;28;20021;-74
2023/10/29 03:13:39;;;;;;;2.67;1.52;;;;;;;;;;5077502;28;20012;-74
2023/10/29 03:16:05;;;;;;;3.08;1.30;;;15.10;99.90;;;;;;5077317;28;20446;-74
2023/10/29 03:18:30;;;;;;;3.47;1.50;;;14.00;99.90;;;;;;5077293;28;20082;-74
2023/10/29 03:20:56;;;;;;;4.18;1.48;;;;;;;;;;5077367;28;20035;-74
2023/10/29 03:23:23;;;;;;;4.22;1.48;;;14.00;99.90;;;;;;5077358;28;20386;-77
2023/10/29 03:25:49;;;;;;;2.45;1.27;;;13.90;99.90;;;;;;5077192;28;20016;-74
2023/10/29 03:28:15;;;;;;;2.17;1.00;;;13.90;99.90;;;;;;5077322;28;20476;-74
2023/10/29 03:30:40;;;;;;;4.63;1.33;;;13.90;99.90;;;;;;5077461;28;20025;-73
2023/10/29 03:33:06;;;;;;;2.83;1.40;;;14.00;99.90;;;;;;5077414;28;20021;-74
2023/10/29 03:35:31;;;;;;;4.65;1.67;;;13.90;99.90;;;;;;5076667;28;20040;-73
2023/10/29 03:37:57;;;;;;;5.15;1.38;;;;;;;;;;5076980;28;20036;-73
2023/10/29 03:40:23;;;;;;;2.53;1.17;;;;;;;;;;5076946;28;20033;-73
2023/10/29 03:42:49;;;;;;;2.90;1.20;;;;;;;;;;5077026;28;20115;-73
2023/10/29 03:45:15;;;;;;;3.78;1.63;;;13.90;99.90;;;;;;5076884;28;20382;-73
2023/10/29 03:47:42;;;;;;;5.03;1.60;;;13.90;99.90;;;;;;5077120;28;20115;-73
2023/10/29 03:50:08;;;;;;;3.28;1.40;;;13.90;99.90;;;;;;5075930;28;20028;-73
2023/10/29 03:52:34;;;;;;;4.40;1.33;;;;;;;;;;5076626;28;20112;-73
2023/10/29 03:55:00;;;;;;;2.20;1.30;;;14.90;99.90;;;;;;5076476;28;20028;-73
2023/10/29 03:57:26;;;;;;;2.80;1.48;;;;;;;;;;5076925;28;20074;-73
2023/10/29 03:59:51;;;;;;;4.10;1.40;;;13.80;99.90;;;;;;5075876;28;20036;-73
2023/10/29 04:02:17;;;;;;;2.38;1.27;;;13.90;99.90;;;;;;5076964;28;20036;-73
2023/10/29 04:04:42;;;;;;;3.33;1.23;;;13.50;99.90;;;;;;5076754;28;20017;-73
2023/10/29 04:07:08;;;;;;;1.60;1.10;;;13.80;99.90;;;;;;5076890;28;20119;-75
2023/10/29 04:09:34;;;;;;;2.58;1.10;;;13.80;99.90;;;;;;5076383;28;20086;-72
2023/10/29 04:12:00;;;;;;;4.00;1.25;;;13.80;99.90;;;;;;5075451;28;20462;-73
2023/10/29 04:14:26;;;;;;;1.77;0.98;;;13.90;99.90;;;;;;5076671;28;20024;-73
2023/10/29 04:16:51;;;;;;;3.40;1.45;;;14.10;99.90;;;;;;5076253;28;20409;-73
2023/10/29 04:19:17;;;;;;;1.85;0.88;;;13.80;99.90;;;;;;5075361;28;20060;-73
2023/10/29 04:21:42;;;;;;;3.10;1.30;;;14.20;99.90;;;;;;5076318;28;20082;-73
2023/10/29 04:24:08;;;;;;;2.33;1.30;;;12.80;99.90;;;;;;5075381;28;20067;-73
2023/10/29 04:26:34;;;;;;;4.25;1.27;;;14.00;99.90;;;;;;5075601;28;20049;-72
2023/10/29 04:28:59;;;;;;;1.83;0.95;;;;;;;;;;5075079;28;20033;-74
2023/10/29 04:31:26;;;;;;;3.90;1.10;;;;;;;;;;5076077;28;20123;-72
2023/10/29 04:33:51;;;;;;;2.00;1.17;;;;;;;;;;5075651;28;20028;-73
2023/10/29 04:36:18;;;;;;;3.65;0.95;;;;;;;;;;5076013;28;20028;-73
2023/10/29 04:38:44;;;;;;;4.65;1.23;;;;;;;;;;5075709;28;20058;-72
2023/10/29 04:41:10;;;;;;;6.32;1.40;;;;;;;;;;5075871;28;20051;-71
2023/10/29 04:43:35;;;;;;;1.55;1.02;;;14.20;99.90;;;;;;5075869;28;20036;-73
2023/10/29 04:46:01;;;;;;;3.10;1.00;;;14.40;99.90;;;;;;5075733;28;20051;-73
2023/10/29 04:48:27;;;;;;;2.88;1.30;;;14.20;99.90;;;;;;5075305;28;20490;-73
2023/10/29 04:50:54;;;;;;;1.25;1.15;;;14.40;99.90;;;;;;5075657;28;20021;-73
2023/10/29 04:53:20;;;;;;;3.70;0.90;;;14.30;99.90;;;;;;5075976;28;20040;-71
2023/10/29 04:55:46;;;;;;;2.30;1.00;;;;;;;;;;5075631;28;20033;-72
2023/10/29 04:58:11;;;;;;;3.35;1.75;;;14.40;99.90;;;;;;5075572;28;20032;-73
2023/10/29 05:00:37;;;;;;;1.85;1.00;;;;;;;;;;5075772;28;20071;-73
2023/10/29 05:03:02;;;;;;;2.97;1.25;;;14.40;99.90;;;;;;5075039;28;20115;-71
2023/10/29 05:05:30;;;;;;;4.22;1.15;;;14.50;99.90;;;;;;5075676;28;20379;-73
2023/10/29 05:07:56;;;;;;;1.52;0.85;;;14.50;99.90;;;;;;5075106;28;20028;-73
2023/10/29 05:10:25;;;;;;;2.42;0.98;;;14.50;99.90;;;;;;5075509;28;20029;-74
2023/10/29 05:12:50;;;;;;;2.28;0.88;;;15.10;99.90;;;;;;5074502;28;20016;-75
2023/10/29 05:15:16;;;;;;;1.98;1.05;;;14.50;99.90;;;;;;5075258;28;20024;-75
2023/10/29 05:17:41;;;;;;;2.67;1.00;;;14.70;99.90;;;;;;5075703;28;20106;-74
2023/10/29 05:20:09;;;;;;;2.95;0.95;;;14.70;99.90;;;;;;5075429;28;20357;-75
2023/10/29 05:22:35;;;;;;;2.90;1.15;;;14.60;99.90;;;;;;5075442;28;20028;-74
2023/10/29 05:25:03;;;;;;;1.77;0.95;;;14.60;99.90;;;;;;5075017;28;20428;-74
2023/10/29 05:27:28;;;;;;;4.03;1.42;;;14.60;99.90;;;;;;5074095;28;20128;-74
2023/10/29 05:29:54;;;;;;;2.78;1.00;;;14.50;99.90;;;;;;5075257;28;20103;-73
2023/10/29 05:32:19;;;;;;;2.15;0.75;;;14.10;99.90;;;;;;5075466;28;20370;-74
2023/10/29 05:34:45;;;;;;;3.70;1.10;;;14.60;99.90;;;;;;5075005;28;20112;-75
2023/10/29 05:37:11;;;;;;;2.15;1.20;;;14.60;99.90;;;;;;5075321;28;20024;-73
2023/10/29 05:39:36;;;;;;;4.85;1.20;;;15.40;99.90;;;;;;5075164;28;20378;-73
2023/10/29 05:42:02;;;;;;;1.65;0.90;;;14.60;99.90;;;;;;5074851;28;20033;-74
2023/10/29 05:44:28;;;;;;;3.13;1.10;;;14.70;99.90;;;;;;5074946;28;20028;-74
2023/10/29 05:46:53;;;;;;;2.17;0.90;;;14.50;99.90;;;;;;5074386;28;20047;-74
2023/10/29 05:49:19;;;;;;;1.65;1.10;;;14.30;99.90;;;;;;5074846;28;20115;-73
2023/10/29 05:51:44;;;;;;;3.03;1.27;;;13.90;99.90;;;;;;5073791;28;20549;-74
2023/10/29 05:54:10;;;;;;;2.25;0.82;;;14.60;99.90;;;;;;5074596;28;20077;-73
2023/10/29 05:56:36;;;;;;;1.70;1.08;;;;;;;;;;5074886;28;20051;-73
2023/10/29 05:59:02;;;;;;;1.98;1.08;;;15.10;99.90;;;;;;5075098;28;20071;-74
2023/10/29 06:01:28;;;;;;;2.03;1.05;;;14.50;99.90;;;;;;5075238;28;20056;-72
2023/10/29 06:03:57;;;;;;;5.40;1.20;;;14.80;99.90;;;;;;5073394;28;20028;-74
2023/10/29 06:06:22;;;;;;;2.30;1.10;;;14.70;99.90;;;;;;5074362;28;20039;-73
2023/10/29 06:08:48;;;;;;;2.10;1.20;;;14.60;99.90;;;;;;5074378;28;20032;-73
2023/10/29 06:11:15;;;;;;;2.25;1.02;;;;;;;;;;5074794;28;20029;-75
2023/10/29 06:13:43;;;;;;;2.80;1.10;;;;;;;;;;5074741;28;20032;-74
2023/10/29 06:16:09;;;;;;;2.42;0.90;;;14.70;99.90;;;;;;5074206;28;20025;-74
2023/10/29 06:18:35;;;;;;;1.67;0.85;;;14.60;99.90;;;;;;5074902;28;20386;-74
2023/10/29 06:21:02;;;;;;;5.93;1.30;;;14.60;99.90;;;;;;5075033;28;20052;-74
2023/10/29 06:23:28;;;;;;;2.88;1.02;;;;;;;;;;5075320;28;20108;-73
2023/10/29 06:25:54;;;;;;;3.95;1.05;;;14.60;99.90;;;;;;5074919;28;20510;-74
2023/10/29 06:28:19;;;;;;;4.63;1.17;;;14.60;99.90;;;;;;5073951;28;20024;-74
2023/10/29 06:30:46;;;;;;;2.97;1.27;;;;;;;;;;5075003;28;20020;-74
2023/10/29 06:33:12;;;;;;;2.92;0.98;;;;;;;;;;5075503;28;20056;-74
2023/10/29 06:35:40;;;;;;;2.22;1.00;;;14.40;99.90;;;;;;5073981;28;20066;-74
2023/10/29 06:38:06;;;;;;;3.88;1.02;;;14.70;99.90;;;;;;5075388;28;20082;-74
2023/10/29 06:40:32;;;;;;;2.10;1.00;;;;;;;;;;5075034;28;20403;-74
2023/10/29 06:42:58;;;;;;;4.07;1.10;;;;;;;;;;5074766;28;20067;-75
2023/10/29 06:45:23;;;;;;;3.70;1.38;;;14.70;99.90;;;;;;5074302;28;20067;-74
2023/10/29 06:47:50;;;;;;;3.42;1.10;;;;;;;;;;5074375;28;20029;-74
2023/10/29 06:50:16;;;;;;;2.03;1.02;;;14.60;99.90;;;;;;5074433;28;20043;-74
2023/10/29 06:52:43;;;;;;;5.15;1.10;;;;;;;;;;5073426;28;20028;-73
2023/10/29 06:55:09;;;;;;;3.65;1.13;;;;;;;;;;5073979;28;20031;-74
2023/10/29 06:57:35;;;;;;;2.58;0.93;;;;;;;;;;5073562;28;20032;-74
2023/10/29 07:00:01;;;;;;;2.25;1.10;;;;;;;;;;5073905;28;20032;-73
2023/10/29 07:02:27;;;;;;;3.78;1.30;;;;;;;;;;5074342;28;20078;-73
2023/10/29 07:04:55;;;;;;;4.65;1.10;;;14.70;98.30;;;;;;5074216;28;20433;-77
2023/10/29 07:07:25;;;;;;;4.30;1.10;;;14.80;95.60;;;;;;5074112;28;20416;-76
2023/10/29 07:09:51;;;;;;;3.20;1.20;;;14.60;93.30;;;;;;5073478;28;20470;-77
2023/10/29 07:12:16;;;;;;;4.75;1.20;;;14.70;93.30;;;;;;5073924;28;20024;-77
2023/10/29 07:14:42;;;;;;;4.45;1.17;;;14.80;91.90;;;;;;5073911;28;20374;-77
2023/10/29 07:17:07;;;;;;;3.47;1.05;;;14.80;87.60;;;;;;5073573;28;20020;-77
2023/10/29 07:19:33;;;;;;;3.70;1.00;;;14.90;71.70;;;;;;5073767;28;20482;-76
2023/10/29 07:21:59;;;;;;;3.88;1.10;;;14.80;89.10;;;;;;5074188;28;20077;-78
2023/10/29 07:24:24;;;;;;;3.05;1.20;;;14.80;82.70;;;;;;5073683;28;20078;-76
2023/10/29 07:26:50;;;;;;;2.92;1.30;;;14.90;59.40;;;;;;5073661;28;20045;-76
2023/10/29 07:29:15;;;;;;;5.13;1.25;;;15.00;61.30;;;;;;5073833;28;20040;-76
2023/10/29 07:31:41;;;;;;;1.77;0.88;;;14.80;74.70;;;;;;5073701;28;20016;-75
2023/10/29 07:34:06;;;;;;;3.00;1.30;;;14.90;58.50;;;;;;5074002;28;20090;-75
2023/10/29 07:36:32;;;;;;;2.70;0.80;;;14.90;58.20;;;;;;5074129;28;20021;-74
2023/10/29 07:38:57;;;;;;;1.33;0.82;;;14.90;52.90;;;;;;5073513;28;20066;-74
2023/10/29 07:41:23;;;;;;;5.32;1.30;;;15.00;44.00;;;;;;5073681;28;20025;-74
2023/10/29 07:43:49;;;;;;;3.65;0.80;;;14.80;47.00;;;;;;5073627;28;20064;-73
2023/10/29 07:46:15;;;;;;;4.38;0.95;;;15.10;33.60;;;;;;5073315;28;20032;-74
2023/10/29 07:48:41;;;;;;;6.30;1.33;;;15.10;24.10;;;;;;5076719;28;20025;-75
2023/10/29 07:51:08;;;;;;;3.15;1.10;;;15.10;26.80;;;;;;5077177;28;20070;-74
2023/10/29 07:53:34;;;;;;;4.15;1.08;;;15.30;32.40;;;;;;5076364;28;20396;-75
2023/10/29 07:56:16;;;;;;;2.30;1.08;;;;;;;;;;5075885;28;20116;-73
2023/10/29 07:58:44;;;;;;;5.88;1.10;;;;;;;;;;5075985;28;20032;-73
2023/10/29 08:01:12;;;;;;;2.83;1.00;;;15.10;10.70;;;;;;5076651;28;20033;-72
2023/10/29 08:03:42;;;;;;;6.10;1.00;;;15.10;14.70;;;;;;5076726;28;20039;-73
2023/10/29 08:06:08;;;;;;;3.67;1.20;;;;;;;;;;5076352;28;20036;-73
2023/10/29 08:08:34;;;;;;;1.92;0.93;;;;;;;;;;5076055;28;20059;-73
2023/10/29 08:11:00;;;;;;;5.55;1.27;;;;;;;;;;5076606;28;20430;-73
2023/10/29 08:13:25;;;;;;;5.72;1.15;;;15.00;29.60;;;;;;5076415;28;20024;-73
2023/10/29 08:15:51;;;;;;;1.98;1.17;;;14.90;28.80;;;;;;5076593;28;20045;-73
2023/10/29 08:18:17;;;;;;;4.07;0.90;;;;;;;;;;5076607;28;20064;-73
2023/10/29 08:20:43;;;;;;;2.95;0.93;;;15.40;7.60;;;;;;5076600;28;20036;-73
2023/10/29 08:23:10;;;;;;;2.97;0.90;;;15.70;1.00;;;;;;5076217;28;20078;-70
2023/10/29 08:25:36;;;;;;;4.70;0.93;;;15.90;1.00;;;;;;5076020;28;20021;-71
2023/10/29 08:28:02;;;;;;;1.88;0.93;;;;;;;;;;5075987;28;20520;-70
2023/10/29 08:30:27;;;;;;;2.20;1.02;;;15.60;1.00;;;;;;5076098;28;20063;-72
2023/10/29 08:32:54;;;;;;;3.05;0.98;;;15.70;1.00;;;;;;5076114;28;20075;-72
2023/10/29 08:35:20;;;;;;;3.78;1.17;;;15.90;1.00;;;;;;5075642;28;20410;-72
2023/10/29 08:37:46;;;;;;;2.28;1.00;;;;;;;;;;5076014;28;20079;-71
2023/10/29 08:40:13;;;;;;;1.92;1.00;;;;;;;;;;5075903;28;20028;-77
2023/10/29 08:42:40;;;;;;;3.85;1.13;;;;;;;;;;5075228;28;20075;-72
2023/10/29 08:45:06;;;;;;;3.22;1.00;;;15.70;1.00;;;;;;5075902;28;20032;-72
2023/10/29 08:47:33;;;;;;;3.58;0.90;;;;;;;;;;5075388;28;20467;-72
2023/10/29 08:49:58;;;;;;;3.25;1.02;;;15.50;1.00;;;;;;5075253;28;20028;-71
2023/10/29 08:52:24;;;;;;;2.00;0.80;;;15.60;1.00;;;;;;5075643;28;20066;-71
2023/10/29 08:54:50;;;;;;;3.70;0.82;;;15.70;1.00;;;;;;5075363;28;20082;-71
2023/10/29 08:57:16;;;;;;;1.38;0.82;;;15.60;1.00;;;;;;5075099;28;20020;-72
2023/10/29 08:59:42;;;;;;;2.65;0.85;;;15.70;1.00;;;;;;5075758;28;20344;-71
2023/10/29 09:02:08;;;;;;;2.85;0.80;;;15.60;1.00;;;;;;5075423;28;20055;-72
2023/10/29 09:04:38;;;;;;;3.42;0.90;;;15.60;1.00;;;;;;5075754;28;20032;-73
2023/10/29 09:07:04;;;;;;;1.83;0.77;;;15.60;1.00;;;;;;5075407;28;20037;-72
2023/10/29 09:09:30;;;;;;;2.80;0.75;;;15.70;1.00;;;;;;5075120;28;20523;-72
2023/10/29 09:11:57;;;;;;;1.42;0.70;;;;;;;;;;5075006;28;20021;-73
2023/10/29 09:14:23;;;;;;;1.88;0.82;;;;;;;;;;5075263;28;20024;-72
2023/10/29 09:16:49;;;;;;;3.78;0.90;;;;;;;;;;5075226;28;20093;-72
2023/10/29 09:19:15;;;;;;;1.15;0.95;;;;;;;;;;5075083;28;20428;-72
2023/10/29 09:21:44;;;;;;;3.53;1.20;;;15.40;1.00;;;;;;5075495;28;20060;-72
2023/10/29 09:24:12;;;;;;;2.38;0.95;;;15.50;1.00;;;;;;5074634;28;20025;-74
2023/10/29 09:26:40;;;;;;;2.45;1.13;;;;;;;;;;5074344;28;20505;-72
2023/10/29 09:29:08;;;;;;;2.25;1.00;;;;;;;;;;5075022;28;20111;-72
2023/10/29 09:31:35;;;;;;;4.93;1.20;;;;;;;;;;5074954;28;20375;-71
2023/10/29 09:34:01;;;;;;;1.77;0.75;;;;;;;;;;5074852;28;20474;-72
2023/10/29 09:36:27;;;;;;;1.90;1.13;;;;;;;;;;5074711;28;20032;-73
2023/10/29 09:38:56;;;;;;;3.03;1.13;;;15.60;1.00;;;;;;5074734;28;20070;-71
2023/10/29 09:41:23;;;;;;;4.60;1.10;;;;;;;;;;5075035;28;20366;-72
2023/10/29 09:43:55;;;;;;;5.32;1.08;;;15.00;1.00;;;;;;5074781;28;20021;-72
2023/10/29 09:46:23;;;;;;;4.07;1.08;;;;;;;;;;5074348;28;20025;-71
2023/10/29 09:48:51;;;;;;;2.47;1.30;;;;;;;;;;5074491;28;20024;-72
2023/10/29 09:51:21;;;;;;;2.38;0.90;;;;;;;;;;5074519;28;20462;-73
2023/10/29 09:53:51;;;;;;;4.75;1.20;;;;;;;;;;5074444;28;20016;-74
2023/10/29 09:56:18;;;;;;;6.50;1.27;;;;;;;;;;5074454;28;20024;-73
2023/10/29 09:58:46;;;;;;;3.10;0.95;;;15.70;1.00;;;;;;5074322;28;20064;-72
2023/10/29 10:01:14;;;;;;;6.47;1.15;;;14.70;1.00;;;;;;5074410;28;20498;-74
2023/10/29 10:03:41;;;;;;;1.33;0.80;;;;;;;;;;5074210;28;20025;-73
2023/10/29 10:06:07;;;;;;;3.33;0.90;;;;;;;;;;5073741;28;20068;-73
2023/10/29 10:08:33;;;;;;;2.65;0.98;;;;;;;;;;5073927;28;20502;-72
2023/10/29 10:11:01;;;;;;;3.67;1.10;;;15.70;1.00;;;;;;5073614;28;20028;-72
2023/10/29 10:13:42;;;;;;;3.55;0.90;;;;;;;;;;5074108;28;20108;-73
2023/10/29 10:16:10;;;;;;;1.65;1.00;;;;;;;;;;5074045;28;20020;-73
2023/10/29 10:18:52;;;;;;;2.85;0.98;;;;;;;;;;5074497;28;20466;-74
2023/10/29 10:21:20;;;;;;;3.35;1.15;;;;;;;;;;5074139;28;20021;-74
2023/10/29 10:23:47;;;;;;;2.95;1.20;;;;;;;;;;5074052;28;20060;-73
2023/10/29 10:26:14;;;;;;;1.20;0.65;;;;;;;;;;5073780;28;20036;-71
2023/10/29 10:28:53;;;;;;;2.40;0.93;;;;;;;;;;5073981;28;20386;-71
2023/10/29 10:31:22;;;;;;;2.25;0.73;;;16.80;99.90;;;;;;5073589;28;20478;-73
2023/10/29 10:33:49;;;;;;;4.13;0.75;;;;;;;;;;5073704;28;20024;-73
2023/10/29 10:36:29;;;;;;;3.22;1.20;;;17.30;99.90;;;;;;5073854;28;20063;-73
2023/10/29 10:38:55;;;;;;;2.97;0.80;;;17.50;99.90;;;;;;5074212;28;20024;-72
2023/10/29 10:41:21;;;;;;;1.85;0.80;;;;;;;;;;5073891;28;20035;-77
2023/10/29 10:44:08;;;;;;;4.30;1.02;;;18.10;99.90;;;;;;5073284;28;20067;-72
2023/10/29 10:46:36;;;;;;;4.25;0.88;;;;;;;;;;5074046;28;20466;-73
2023/10/29 10:49:06;;;;;;;1.73;0.77;;;16.90;1.00;;;;;;5073163;28;20021;-72
2023/10/29 10:51:34;;;;;;;5.03;0.93;;;17.20;99.90;;;;;;5073991;28;20035;-73
2023/10/29 10:54:01;;;;;;;1.88;0.80;;;;;;;;;;5073784;28;20020;-73
2023/10/29 10:56:28;;;;;;;1.10;0.80;;;;;;;;;;5073779;28;20074;-72
2023/10/29 10:58:54;;;;;;;3.13;0.98;;;;;;;;;;5073655;28;20032;-72
2023/10/29 11:01:20;;;;;;;2.92;0.75;;;;;;;;;;5073755;28;20047;-73
2023/10/29 11:03:47;;;;;;;3.45;1.10;;;;;;;;;;5073744;28;20036;-72
2023/10/29 11:06:13;;;;;;;4.55;0.80;;;;;;;;;;5073686;28;20050;-72
2023/10/29 11:08:40;;;;;;;2.80;1.00;;;17.10;99.90;;;;;;5073489;28;20503;-74
2023/10/29 11:11:06;;;;;;;4.70;1.10;;;;;;;;;;5073232;28;20374;-73
2023/10/29 11:13:32;;;;;;;3.78;0.85;;;;;;;;;;5073709;28;20085;-73
2023/10/29 11:16:05;;;;;;;4.72;1.00;;;;;;;;;;5073609;28;20025;-72
2023/10/29 11:18:31;;;;;;;;;;;17.80;44.80;;;;;;5073987;28;20424;-72
2023/10/29 11:21:00;;;;;;;3.10;0.90;;;;;;;;;;5074248;28;20346;-72
2023/10/29 11:23:28;;;;;;;4.40;0.85;;;;;;;;;;5077470;28;20421;-72
2023/10/29 11:26:14;;;;;;;5.20;1.17;;;;;;;;;;5077161;28;20052;-72
2023/10/29 11:28:42;;;;;;;3.83;1.17;;;;;;;;;;5077396;28;20063;-71
2023/10/29 11:31:13;;;;;;;2.30;1.00;;;;;;;;;;5077028;28;20021;-72
2023/10/29 11:33:39;;;;;;;3.78;1.13;;;;;;;;;;5076647;28;20021;-70
2023/10/29 11:36:25;;;;;;;3.25;0.95;;;;;;;;;;5077120;28;20413;-71
2023/10/29 11:38:51;;;;;;;2.00;0.95;;;;;;;;;;5076338;28;20067;-71
2023/10/29 11:41:31;;;;;;;5.65;1.20;;;;;;;;;;5077121;28;20059;-71
2023/10/29 11:44:17;;;;;;;4.03;1.13;;;;;;;;;;5076972;28;20028;-72
2023/10/29 11:47:02;;;;;;;4.95;1.33;;;;;;;;;;5076740;28;20024;-72
2023/10/29 11:49:29;;;;;;;1.83;0.93;;;;;;;;;;5076920;28;20382;-72
2023/10/29 11:51:59;;;;;;;2.08;0.75;;;;;;;;;;5076837;28;20056;-72
2023/10/29 11:54:25;;;;;;;1.63;0.90;;;;;;;;;;5076786;28;20190;-73
2023/10/29 11:56:52;;;;;;;2.83;1.17;;;;;;;;;;5076854;28;20029;-72
2023/10/29 11:59:18;;;;;;;3.05;0.90;;;;;;;;;;5076686;28;20485;-72
2023/10/29 12:01:44;;;;;;;6.45;1.00;;;;;;;;;;5076588;28;20021;-72
2023/10/29 12:04:12;;;;;;;2.88;1.10;;;;;;;;;;5076593;28;20024;-72
2023/10/29 12:06:46;;;;;;;5.88;1.25;;;;;;;;;;5076580;28;20355;-72
2023/10/29 12:09:14;;;;;;;2.95;0.85;;;;;;;;;;5076438;28;20443;-72
2023/10/29 12:11:40;;;;;;;3.80;1.17;;;;;;;;;;5076494;28;20035;-72
2023/10/29 12:14:06;;;;;;;3.53;1.15;;;;;;;;;;5076520;28;20028;-73
2023/10/29 12:16:32;;;;;;;2.08;0.80;;;;;;;;;;5076669;28;20077;-72
2023/10/29 12:18:58;;;;;;;2.60;1.27;;;;;;;;;;5076366;28;20122;-72
2023/10/29 12:21:24;;;;;;;5.40;1.50;;;;;;;;;;5076276;28;20061;-72
2023/10/29 12:23:51;;;;;;;3.20;1.10;;;;;;;;;;5075905;28;20035;-72
2023/10/29 12:26:18;;;;;;;2.90;1.05;;;;;;;;;;5076063;28;20048;-72
2023/10/29 12:28:44;;;;;;;2.05;0.75;;;;;;;;;;5075939;28;20028;-72
2023/10/29 12:31:26;;;;;;;3.65;1.00;;;;;;;;;;5076052;28;20036;-71
2023/10/29 12:33:56;;;;;;;1.95;1.00;;;;;;;;;;5075487;28;20044;-72
2023/10/29 12:36:23;;;;;;;2.40;0.90;;;;;;;;;;5075257;28;20024;-71
2023/10/29 12:38:49;;;;;;;1.33;0.85;;;;;;;;;;5075997;28;20021;-72
2023/10/29 12:41:15;;;;;;;2.28;0.80;;;;;;;;;;5076000;28;20024;-72
2023/10/29 12:43:47;;;;;;;1.88;0.90;;;;;;;;;;5075998;28;20370;-72
2023/10/29 12:46:14;;;;;;;3.35;0.93;;;;;;;;;;5076009;28;20036;-72
2023/10/29 12:49:04;;;;;;;3.30;1.10;;;15.30;64.50;;;;;;5075833;28;20032;-72
2023/10/29 12:51:31;;;;;;;2.83;0.90;;;;;;;;;;5075157;28;20035;-72
2023/10/29 12:54:20;;;;;;;2.63;1.17;;;15.10;99.90;;;;;;5075712;28;20028;-72
2023/10/29 12:57:11;;;;;;;2.90;1.15;;;15.00;99.90;;;;;;5075848;28;20332;-74
2023/10/29 12:59:38;;;;;;;2.95;1.27;;;14.90;99.90;;;;;;5075286;28;20060;-73
2023/10/29 13:02:05;;;;;;;1.17;0.90;;;;;;;;;;5075215;28;20478;-73
2023/10/29 13:04:34;;;;;;;2.00;1.02;;;14.30;99.90;;;;;;5075564;28;20425;-74
2023/10/29 13:07:07;;;;;;;1.70;0.90;;;14.10;99.90;;;;;;5075317;28;20540;-74
2023/10/29 13:09:34;;;;;;;3.45;1.40;;;;;;;;;;5075548;28;20063;-74
2023/10/29 13:12:00;;;;;;;4.70;1.50;;;;;;;;;;5075326;28;20455;-74
2023/10/29 13:14:26;;;;;;;2.55;1.30;;;12.80;99.90;;;;;;5075281;28;20123;-74
2023/10/29 13:16:53;;;;;;;2.88;1.20;;;13.60;99.90;;;;;;5074399;28;20027;-73
2023/10/29 13:19:20;;;;;;;3.60;1.17;;;;;;;;;;5075159;28;20478;-73
2023/10/29 13:21:46;;;;;;;4.28;1.27;;;;;;;;;;5075052;28;20084;-74
2023/10/29 13:24:11;;;;;;;5.50;1.52;;;13.50;99.90;;;;;;5075153;28;20087;-74
2023/10/29 13:26:37;;;;;;;4.47;1.50;;;;;;;;;;5074288;28;20090;-73